Time,TemperatureF,DewpointF,PressureIn,WindDirection,WindDirectionDegrees,WindSpeedMPH,WindSpeedGustMPH,Humidity,HourlyPrecipIn,Conditions,Clouds,dailyrainin,SoftwareType,DateUTC
2013-01-04 00:07:00,65.3,63.2,29.96,NNW,337,0.0,-999.0,93,-99.99,,,0.00,Acu-Link.com,2013-01-04 05:07:00,
2013-01-04 00:22:00,65.3,63.2,29.96,NW,315,1.1,-999.0,93,-99.99,,,0.00,Acu-Link.com,2013-01-04 05:22:00,
2013-01-04 00:38:00,65.1,63.3,29.95,WNW,292,1.1,-999.0,94,-99.99,,,0.00,Acu-Link.com,2013-01-04 05:38:00,
2013-01-04 00:53:00,65.3,63.8,29.96,West,270,0.0,-999.0,95,-99.99,,,0.00,Acu-Link.com,2013-01-04 05:53:00,
2013-01-04 01:08:00,65.3,63.8,29.95,WSW,247,1.7,-999.0,95,-99.99,,,0.00,Acu-Link.com,2013-01-04 06:08:00,
2013-01-04 01:23:00,65.5,64.0,29.95,ESE,112,0.0,-999.0,95,-99.99,,,0.00,Acu-Link.com,2013-01-04 06:23:00,
2013-01-04 01:39:00,65.7,64.2,29.96,NW,315,0.0,-999.0,95,-99.99,,,0.00,Acu-Link.com,2013-01-04 06:39:00,
2013-01-04 01:54:00,65.7,64.2,29.95,WSW,247,1.1,-999.0,95,-99.99,,,0.00,Acu-Link.com,2013-01-04 06:54:00,
2013-01-04 02:10:00,65.7,64.2,29.96,East,90,0.0,-999.0,95,-99.99,,,0.00,Acu-Link.com,2013-01-04 07:10:00,
2013-01-04 02:25:00,65.7,64.2,29.96,SW,225,0.0,-999.0,95,-99.99,,,0.00,Acu-Link.com,2013-01-04 07:25:00,
2013-01-04 02:40:00,65.7,64.2,29.97,SE,135,0.0,-999.0,95,-99.99,,,0.00,Acu-Link.com,2013-01-04 07:40:00,
2013-01-04 02:55:00,65.5,64.0,29.96,SE,135,1.7,-999.0,95,-99.99,,,0.00,Acu-Link.com,2013-01-04 07:55:00,
2013-01-04 03:11:00,64.4,62.6,29.97,NNW,337,1.1,-999.0,94,-99.99,,,0.00,Acu-Link.com,2013-01-04 08:11:00,
2013-01-04 03:26:00,64.0,62.2,29.96,ENE,67,1.7,-999.0,94,-99.99,,,0.00,Acu-Link.com,2013-01-04 08:26:00,
2013-01-04 03:41:00,63.9,62.1,29.97,SSW,202,1.7,-999.0,94,-99.99,,,0.00,Acu-Link.com,2013-01-04 08:41:00,
2013-01-04 03:57:00,63.3,61.5,29.98,West,270,1.7,-999.0,94,-99.99,,,0.00,Acu-Link.com,2013-01-04 08:57:00,
2013-01-04 04:12:00,63.3,61.5,29.98,WNW,292,2.2,-999.0,94,-99.99,,,0.00,Acu-Link.com,2013-01-04 09:12:00,
2013-01-04 04:27:00,63.1,61.3,29.97,SE,135,1.1,-999.0,94,-99.99,,,0.00,Acu-Link.com,2013-01-04 09:27:00,
2013-01-04 04:42:00,63.1,61.6,29.97,North,0,2.2,-999.0,95,-99.99,,,0.00,Acu-Link.com,2013-01-04 09:42:00,
2013-01-04 04:57:00,63.3,61.8,29.97,West,270,0.0,-999.0,95,-99.99,,,0.00,Acu-Link.com,2013-01-04 09:57:00,
2013-01-04 05:13:00,63.3,61.8,29.97,West,270,0.0,-999.0,95,-99.99,,,0.00,Acu-Link.com,2013-01-04 10:13:00,
2013-01-04 05:28:00,63.7,62.2,29.97,SE,135,0.0,-999.0,95,-99.99,,,0.00,Acu-Link.com,2013-01-04 10:28:00,
2013-01-04 05:43:00,63.7,62.2,29.98,West,270,0.0,-999.0,95,-99.99,,,0.00,Acu-Link.com,2013-01-04 10:43:00,
2013-01-04 05:59:00,63.9,62.4,29.98,SSW,202,0.0,-999.0,95,-99.99,,,0.00,Acu-Link.com,2013-01-04 10:59:00,
2013-01-04 06:14:00,64.0,62.5,29.98,ESE,112,0.0,-999.0,95,-99.99,,,0.00,Acu-Link.com,2013-01-04 11:14:00,
2013-01-04 06:29:00,64.6,63.1,30.00,NNE,22,0.0,-999.0,95,-99.99,,,0.00,Acu-Link.com,2013-01-04 11:29:00,
2013-01-04 06:45:00,64.8,63.3,29.99,SE,135,3.7,-999.0,95,-99.99,,,0.00,Acu-Link.com,2013-01-04 11:45:00,
2013-01-04 07:00:00,64.8,63.3,30.01,WNW,292,2.7,-999.0,95,-99.99,,,0.00,Acu-Link.com,2013-01-04 12:00:00,
2013-01-04 07:15:00,64.8,63.3,30.00,West,270,2.2,-999.0,95,-99.99,,,0.00,Acu-Link.com,2013-01-04 12:15:00,
2013-01-04 07:30:00,64.8,63.3,30.02,ESE,112,2.2,-999.0,95,-99.99,,,0.00,Acu-Link.com,2013-01-04 12:30:00,
2013-01-04 07:46:00,64.9,63.1,30.02,SW,225,1.7,-999.0,94,-99.99,,,0.00,Acu-Link.com,2013-01-04 12:46:00,
2013-01-04 08:01:00,64.9,63.1,30.03,NNE,22,1.7,-999.0,94,-99.99,,,0.00,Acu-Link.com,2013-01-04 13:01:00,
2013-01-04 08:16:00,64.9,62.8,30.04,North,0,0.0,-999.0,93,-99.99,,,0.00,Acu-Link.com,2013-01-04 13:16:00,
2013-01-04 08:32:00,64.9,62.8,30.04,SW,225,0.0,-999.0,93,-99.99,,,0.00,Acu-Link.com,2013-01-04 13:32:00,
2013-01-04 08:47:00,65.1,63.0,30.06,ESE,112,3.7,-999.0,93,-99.99,,,0.00,Acu-Link.com,2013-01-04 13:47:00,
2013-01-04 09:02:00,64.9,62.8,30.05,West,270,1.7,-999.0,93,-99.99,,,0.00,Acu-Link.com,2013-01-04 14:02:00,
2013-01-04 09:18:00,65.5,63.4,30.05,West,270,0.0,-999.0,93,-99.99,,,0.00,Acu-Link.com,2013-01-04 14:18:00,
2013-01-04 09:33:00,65.7,63.3,30.07,West,270,0.0,-999.0,92,-99.99,,,0.00,Acu-Link.com,2013-01-04 14:33:00,
2013-01-04 09:48:00,65.7,63.6,30.06,West,270,0.0,-999.0,93,-99.99,,,0.00,Acu-Link.com,2013-01-04 14:48:00,
2013-01-04 10:03:00,65.1,63.6,30.06,NW,315,2.7,-999.0,95,-99.99,,,0.00,Acu-Link.com,2013-01-04 15:03:00,
2013-01-04 10:19:00,64.9,63.7,30.07,WNW,292,0.0,-999.0,96,-99.99,,,0.00,Acu-Link.com,2013-01-04 15:19:00,
2013-01-04 10:34:00,64.9,64.0,30.07,East,90,2.7,-999.0,97,-99.99,,,0.00,Acu-Link.com,2013-01-04 15:34:00,
2013-01-04 10:49:00,64.9,64.0,30.06,NW,315,0.0,-999.0,97,-99.99,,,0.00,Acu-Link.com,2013-01-04 15:49:00,
2013-01-04 11:05:00,65.5,64.3,30.06,South,180,0.0,-999.0,96,-99.99,,,0.00,Acu-Link.com,2013-01-04 16:05:00,
2013-01-04 11:20:00,66.0,64.5,30.06,WSW,247,0.0,-999.0,95,-99.99,,,0.00,Acu-Link.com,2013-01-04 16:20:00,
2013-01-04 11:35:00,66.6,65.1,30.06,ESE,112,0.0,-999.0,95,-99.99,,,0.00,Acu-Link.com,2013-01-04 16:35:00,
2013-01-04 11:50:00,67.5,66.0,30.04,SSE,157,0.0,-999.0,95,-99.99,,,0.00,Acu-Link.com,2013-01-04 16:50:00,
2013-01-04 12:06:00,66.9,64.8,30.04,East,90,4.2,-999.0,93,-99.99,,,0.00,Acu-Link.com,2013-01-04 17:06:00,
2013-01-04 12:21:00,67.8,65.4,30.03,SSE,157,2.2,-999.0,92,-99.99,,,0.00,Acu-Link.com,2013-01-04 17:21:00,
2013-01-04 12:36:00,68.7,65.3,30.02,NE,45,1.1,-999.0,89,-99.99,,,0.00,Acu-Link.com,2013-01-04 17:36:00,
2013-01-04 12:51:00,68.7,65.3,30.01,ESE,112,0.0,-999.0,89,-99.99,,,0.00,Acu-Link.com,2013-01-04 17:51:00,
2013-01-04 13:07:00,68.5,65.1,30.01,SSW,202,2.7,-999.0,89,-99.99,,,0.00,Acu-Link.com,2013-01-04 18:07:00,
2013-01-04 13:22:00,67.8,64.4,30.00,WSW,247,0.0,-999.0,89,-99.99,,,0.00,Acu-Link.com,2013-01-04 18:22:00,
2013-01-04 13:37:00,67.6,64.9,30.01,SSW,202,0.0,-999.0,91,-99.99,,,0.00,Acu-Link.com,2013-01-04 18:37:00,
2013-01-04 13:53:00,67.3,64.6,30.00,West,270,1.7,-999.0,91,-99.99,,,0.00,Acu-Link.com,2013-01-04 18:53:00,
2013-01-04 14:08:00,67.3,64.6,30.00,West,270,1.7,-999.0,91,-99.99,,,0.00,Acu-Link.com,2013-01-04 19:08:00,
2013-01-04 14:23:00,67.6,64.6,29.99,West,270,1.1,-999.0,90,-99.99,,,0.00,Acu-Link.com,2013-01-04 19:23:00,
2013-01-04 14:39:00,68.4,65.0,29.99,NW,315,2.2,-999.0,89,-99.99,,,0.00,Acu-Link.com,2013-01-04 19:39:00,
2013-01-04 14:54:00,68.9,64.9,30.00,SE,135,0.0,-999.0,87,-99.99,,,0.00,Acu-Link.com,2013-01-04 19:54:00,
2013-01-04 15:09:00,68.9,64.9,30.00,SSW,202,0.0,-999.0,87,-99.99,,,0.00,Acu-Link.com,2013-01-04 20:09:00,
2013-01-04 15:24:00,68.5,64.8,30.00,SW,225,0.0,-999.0,88,-99.99,,,0.00,Acu-Link.com,2013-01-04 20:24:00,
2013-01-04 15:40:00,67.6,64.6,30.00,West,270,1.7,-999.0,90,-99.99,,,0.00,Acu-Link.com,2013-01-04 20:40:00,
2013-01-04 15:55:00,67.8,64.1,30.00,WNW,292,2.2,-999.0,88,-99.99,,,0.00,Acu-Link.com,2013-01-04 20:55:00,
2013-01-04 16:10:00,66.7,63.4,30.01,West,270,1.1,-999.0,89,-99.99,,,0.00,Acu-Link.com,2013-01-04 21:10:00,
2013-01-04 16:26:00,66.4,63.4,30.02,NNW,337,0.0,-999.0,90,-99.99,,,0.00,Acu-Link.com,2013-01-04 21:26:00,
2013-01-04 16:41:00,66.0,63.0,30.02,WNW,292,0.0,-999.0,90,-99.99,,,0.00,Acu-Link.com,2013-01-04 21:41:00,
2013-01-04 16:56:00,65.8,62.8,30.01,WNW,292,0.0,-999.0,90,-99.99,,,0.00,Acu-Link.com,2013-01-04 21:56:00,
2013-01-04 17:12:00,65.3,62.6,30.02,NNE,22,0.0,-999.0,91,-99.99,,,0.00,Acu-Link.com,2013-01-04 22:12:00,
2013-01-04 17:27:00,65.1,62.7,30.02,SSW,202,0.0,-999.0,92,-99.99,,,0.00,Acu-Link.com,2013-01-04 22:27:00,
2013-01-04 17:42:00,64.9,62.5,30.03,North,0,0.0,-999.0,92,-99.99,,,0.00,Acu-Link.com,2013-01-04 22:42:00,
2013-01-04 17:57:00,64.4,62.3,30.03,East,90,1.1,-999.0,93,-99.99,,,0.00,Acu-Link.com,2013-01-04 22:57:00,
2013-01-04 18:13:00,63.7,61.9,30.04,ESE,112,2.2,-999.0,94,-99.99,,,0.00,Acu-Link.com,2013-01-04 23:13:00,
2013-01-04 18:28:00,63.5,62.0,30.05,SW,225,1.7,-999.0,95,-99.99,,,0.00,Acu-Link.com,2013-01-04 23:28:00,
2013-01-04 18:43:00,63.5,61.7,30.05,West,270,1.1,-999.0,94,-99.99,,,0.00,Acu-Link.com,2013-01-04 23:43:00,
2013-01-04 18:59:00,63.3,61.5,30.06,West,270,0.0,-999.0,94,-99.99,,,0.00,Acu-Link.com,2013-01-04 23:59:00,
2013-01-04 19:14:00,63.1,61.3,30.07,ESE,112,1.1,-999.0,94,-99.99,,,0.00,Acu-Link.com,2013-01-05 00:14:00,
2013-01-04 19:29:00,63.1,61.3,30.07,West,270,0.0,-999.0,94,-99.99,,,0.00,Acu-Link.com,2013-01-05 00:29:00,
2013-01-04 19:45:00,63.1,61.3,30.08,West,270,2.2,-999.0,94,-99.99,,,0.00,Acu-Link.com,2013-01-05 00:45:00,
2013-01-04 20:00:00,63.1,61.0,30.08,SSE,157,0.0,-999.0,93,-99.99,,,0.00,Acu-Link.com,2013-01-05 01:00:00,
2013-01-04 20:15:00,63.0,60.9,30.08,NW,315,1.7,-999.0,93,-99.99,,,0.00,Acu-Link.com,2013-01-05 01:15:00,
2013-01-04 20:30:00,62.6,60.5,30.08,West,270,0.0,-999.0,93,-99.99,,,0.00,Acu-Link.com,2013-01-05 01:30:00,
2013-01-04 20:46:00,62.4,60.6,30.08,SE,135,0.0,-999.0,94,-99.99,,,0.00,Acu-Link.com,2013-01-05 01:46:00,
2013-01-04 21:01:00,62.4,60.6,30.08,NW,315,0.0,-999.0,94,-99.99,,,0.00,Acu-Link.com,2013-01-05 02:01:00,
2013-01-04 21:16:00,62.2,60.4,30.08,SW,225,2.2,-999.0,94,-99.99,,,0.00,Acu-Link.com,2013-01-05 02:16:00,
2013-01-04 21:32:00,62.1,60.4,30.09,SE,135,1.1,-999.0,94,-99.99,,,0.00,Acu-Link.com,2013-01-05 02:32:00,
2013-01-04 21:47:00,62.1,60.4,30.08,NW,315,1.7,-999.0,94,-99.99,,,0.00,Acu-Link.com,2013-01-05 02:47:00,
2013-01-04 22:02:00,61.9,60.2,30.09,NNW,337,0.0,-999.0,94,-99.99,,,0.00,Acu-Link.com,2013-01-05 03:02:00,
2013-01-04 22:18:00,61.9,60.2,30.08,WNW,292,2.7,-999.0,94,-99.99,,,0.00,Acu-Link.com,2013-01-05 03:18:00,
2013-01-04 22:33:00,61.9,60.2,30.07,NW,315,1.7,-999.0,94,-99.99,,,0.00,Acu-Link.com,2013-01-05 03:33:00,
2013-01-04 22:48:00,61.9,60.2,30.07,WSW,247,2.7,-999.0,94,-99.99,,,0.00,Acu-Link.com,2013-01-05 03:48:00,
2013-01-04 23:03:00,62.1,60.4,30.07,NW,315,0.0,-999.0,94,-99.99,,,0.00,Acu-Link.com,2013-01-05 04:03:00,
2013-01-04 23:19:00,62.1,60.4,30.07,East,90,2.7,-999.0,94,-99.99,,,0.00,Acu-Link.com,2013-01-05 04:19:00,
2013-01-04 23:34:00,62.1,60.4,30.08,SSW,202,5.8,-999.0,94,-99.99,,,0.00,Acu-Link.com,2013-01-05 04:34:00,
2013-01-04 23:49:00,61.9,60.2,30.07,South,180,0.0,-999.0,94,-99.99,,,0.00,Acu-Link.com,2013-01-05 04:49:00,